createdAt,value
2022-08-30T00:01:24.831Z,83.30
2022-08-30T00:03:55.061Z,84.10
2022-08-30T00:06:24.123Z,84.00
2022-08-30T00:08:52.794Z,84.70
2022-08-30T00:11:23.685Z,84.50
2022-08-30T00:13:52.927Z,84.80
2022-08-30T00:16:23.646Z,85.70
2022-08-30T00:18:51.966Z,86.00
2022-08-30T00:21:20.279Z,85.10
2022-08-30T00:23:48.115Z,85.40
2022-08-30T00:26:15.964Z,86.10
2022-08-30T00:28:43.882Z,85.90
2022-08-30T00:31:13.554Z,85.60
2022-08-30T00:33:44.933Z,86.50
2022-08-30T00:36:12.791Z,86.00
2022-08-30T00:38:40.603Z,86.20
2022-08-30T00:41:08.579Z,86.40
2022-08-30T00:43:37.159Z,87.10
2022-08-30T00:46:08.167Z,86.70
2022-08-30T00:48:38.565Z,87.80
2022-08-30T00:51:13.337Z,87.20
2022-08-30T00:53:44.113Z,88.80
2022-08-30T00:56:12.679Z,89.80
2022-08-30T00:58:45.409Z,89.00
2022-08-30T01:01:14.243Z,89.20
2022-08-30T01:03:43.322Z,88.60
2022-08-30T01:06:15.023Z,88.70
2022-08-30T01:08:43.000Z,89.80
2022-08-30T01:11:12.277Z,89.70
2022-08-30T01:13:40.661Z,89.20
2022-08-30T01:16:09.030Z,90.30
2022-08-30T01:18:39.762Z,90.10
2022-08-30T01:21:16.725Z,88.50
2022-08-30T01:23:47.847Z,90.00
2022-08-30T01:26:17.490Z,90.20
2022-08-30T01:28:54.633Z,91.30
2022-08-30T01:31:22.651Z,90.60
2022-08-30T01:33:51.125Z,91.20
2022-08-30T01:36:20.760Z,91.00
2022-08-30T01:38:51.991Z,91.70
2022-08-30T01:41:21.917Z,91.70
2022-08-30T01:43:51.019Z,92.40
2022-08-30T01:46:21.247Z,92.70
2022-08-30T01:48:50.345Z,92.00
2022-08-30T01:51:24.106Z,90.30
2022-08-30T01:53:53.816Z,90.30
2022-08-30T01:56:21.928Z,92.50
2022-08-30T01:58:49.875Z,90.70
2022-08-30T02:01:20.725Z,91.30
2022-08-30T02:03:49.939Z,91.20
2022-08-30T02:06:20.253Z,92.00
2022-08-30T02:08:49.135Z,91.60
2022-08-30T02:11:19.150Z,91.40
2022-08-30T02:13:47.491Z,91.70
2022-08-30T02:16:17.785Z,92.00
2022-08-30T02:18:46.627Z,92.40
2022-08-30T02:21:14.631Z,93.10
2022-08-30T02:23:42.827Z,92.00
2022-08-30T02:26:11.167Z,92.00
2022-08-30T02:28:49.830Z,92.20
2022-08-30T02:31:20.439Z,92.80
2022-08-30T02:33:50.107Z,91.80
2022-08-30T02:36:18.574Z,93.00
2022-08-30T02:38:46.416Z,92.50
2022-08-30T02:41:14.857Z,92.90
2022-08-30T02:43:44.231Z,92.00
2022-08-30T02:46:12.575Z,92.70
2022-08-30T02:48:40.830Z,93.00
2022-08-30T02:51:11.710Z,93.70
2022-08-30T02:53:40.351Z,94.00
2022-08-30T02:56:08.915Z,94.20
2022-08-30T02:58:37.408Z,94.00
2022-08-30T03:01:07.332Z,93.70
2022-08-30T03:03:35.693Z,95.60
2022-08-30T03:06:04.196Z,96.40
2022-08-30T03:08:32.319Z,94.50
2022-08-30T03:11:00.820Z,94.70
2022-08-30T03:13:28.602Z,94.90
2022-08-30T03:15:56.761Z,93.60
2022-08-30T03:20:55.148Z,94.50
2022-08-30T03:23:23.695Z,95.00
2022-08-30T03:25:51.694Z,96.30
2022-08-30T03:28:19.731Z,94.50
2022-08-30T03:30:48.006Z,94.80
2022-08-30T03:33:16.074Z,96.10
2022-08-30T03:35:46.393Z,96.20
2022-08-30T03:38:15.600Z,98.00
2022-08-30T03:40:43.483Z,96.40
2022-08-30T03:43:11.596Z,94.90
2022-08-30T03:45:40.842Z,94.70
2022-08-30T03:48:08.768Z,94.50
2022-08-30T03:50:36.910Z,95.70
2022-08-30T03:53:05.032Z,97.10
2022-08-30T03:55:34.604Z,96.70
2022-08-30T03:58:02.397Z,95.80
2022-08-30T04:00:31.472Z,97.00
2022-08-30T04:02:59.288Z,95.90
2022-08-30T04:05:27.502Z,96.50
2022-08-30T04:07:55.892Z,97.20
2022-08-30T04:10:24.341Z,97.40
2022-08-30T04:12:53.783Z,98.90
2022-08-30T04:15:21.577Z,97.20
2022-08-30T04:17:49.758Z,98.60
2022-08-30T04:20:18.091Z,97.80
2022-08-30T04:22:45.888Z,98.30
2022-08-30T04:25:15.535Z,99.90
2022-08-30T04:27:44.043Z,99.90
2022-08-30T04:30:15.305Z,98.70
2022-08-30T04:32:43.427Z,98.50
2022-08-30T04:35:12.077Z,98.10
2022-08-30T04:37:41.024Z,97.90
2022-08-30T04:40:10.567Z,98.50
2022-08-30T04:42:38.998Z,98.10
2022-08-30T04:45:10.097Z,99.40
2022-08-30T04:47:39.747Z,98.80
2022-08-30T04:50:08.647Z,99.90
2022-08-30T04:52:36.477Z,99.90
2022-08-30T04:55:05.765Z,99.70
2022-08-30T04:57:33.569Z,98.40
2022-08-30T05:00:01.587Z,99.70
2022-08-30T05:02:29.446Z,96.40
2022-08-30T05:05:16.404Z,93.50
2022-08-30T05:07:44.195Z,94.90
2022-08-30T05:10:12.008Z,92.10
2022-08-30T05:12:40.004Z,91.90
2022-08-30T05:15:09.237Z,89.10
2022-08-30T05:17:38.403Z,88.40
2022-08-30T05:20:12.176Z,85.10
2022-08-30T05:22:49.838Z,84.10
2022-08-30T05:25:23.794Z,84.80
2022-08-30T05:27:52.215Z,85.00
2022-08-30T05:30:21.312Z,85.70
2022-08-30T05:32:49.142Z,81.40
2022-08-30T05:35:24.914Z,77.90
2022-08-30T05:37:54.057Z,78.30
2022-08-30T05:40:22.535Z,78.60
2022-08-30T05:42:50.403Z,78.70
2022-08-30T05:45:18.250Z,78.50
2022-08-30T05:47:47.532Z,77.20
2022-08-30T05:50:15.784Z,74.90
2022-08-30T05:52:45.186Z,74.00
2022-08-30T05:55:13.427Z,72.50
2022-08-30T05:57:42.357Z,74.60
2022-08-30T06:00:13.422Z,72.10
2022-08-30T06:02:42.222Z,73.00
2022-08-30T06:05:10.614Z,72.80
2022-08-30T06:07:42.258Z,72.00
2022-08-30T06:10:12.397Z,73.50
2022-08-30T06:12:40.369Z,74.30
2022-08-30T06:15:09.318Z,74.60
2022-08-30T06:17:39.510Z,76.10
2022-08-30T06:20:09.056Z,75.00
2022-08-30T06:22:38.578Z,75.70
2022-08-30T06:25:07.314Z,73.60
2022-08-30T06:27:40.913Z,73.30
2022-08-30T06:30:10.939Z,71.80
2022-08-30T06:32:39.070Z,69.20
2022-08-30T06:35:08.409Z,66.60
2022-08-30T06:37:36.367Z,68.50
2022-08-30T06:40:05.784Z,66.10
2022-08-30T06:42:35.813Z,65.70
2022-08-30T06:45:10.330Z,67.60
2022-08-30T06:47:39.222Z,68.60
2022-08-30T06:50:08.277Z,67.60
2022-08-30T06:52:40.126Z,65.10
2022-08-30T06:55:08.539Z,65.60
2022-08-30T06:57:37.713Z,66.70
2022-08-30T07:00:07.859Z,67.80
2022-08-30T07:02:38.855Z,65.40
2022-08-30T07:05:07.924Z,65.40
2022-08-30T07:07:36.337Z,63.70
2022-08-30T07:10:05.831Z,63.20
2022-08-30T07:12:33.613Z,65.10
2022-08-30T07:15:03.404Z,66.50
2022-08-30T07:17:48.668Z,64.50
2022-08-30T07:20:18.363Z,66.00
2022-08-30T07:22:46.241Z,64.80
2022-08-30T07:25:14.327Z,64.30
2022-08-30T07:27:42.268Z,65.80
2022-08-30T07:30:13.126Z,67.70
2022-08-30T07:32:40.965Z,67.20
2022-08-30T07:35:09.380Z,67.00
2022-08-30T07:37:37.420Z,65.50
2022-08-30T07:40:06.214Z,64.30
2022-08-30T07:42:34.064Z,61.90
2022-08-30T07:45:03.213Z,63.80
2022-08-30T07:47:33.294Z,63.20
2022-08-30T07:50:01.233Z,62.70
2022-08-30T07:52:30.837Z,60.90
2022-08-30T07:54:59.763Z,62.00
2022-08-30T07:57:27.818Z,60.60
2022-08-30T07:59:55.651Z,58.40
2022-08-30T08:02:23.446Z,58.30
2022-08-30T08:04:52.593Z,58.10
2022-08-30T08:07:20.397Z,59.10
2022-08-30T08:09:48.227Z,58.50
2022-08-30T08:12:16.056Z,58.70
2022-08-30T08:14:43.880Z,57.50
2022-08-30T08:17:11.655Z,56.80
2022-08-30T08:19:39.432Z,56.40
2022-08-30T08:22:20.510Z,58.30
2022-08-30T08:24:49.341Z,57.40
2022-08-30T08:27:17.557Z,58.90
2022-08-30T08:29:45.464Z,57.00
2022-08-30T08:32:13.270Z,56.40
2022-08-30T08:34:41.469Z,56.00
2022-08-30T08:37:10.595Z,56.30
2022-08-30T08:39:38.426Z,57.80
2022-08-30T08:42:12.909Z,55.70
2022-08-30T08:44:54.677Z,56.60
2022-08-30T08:47:29.536Z,56.90
2022-08-30T08:50:02.941Z,57.10
2022-08-30T08:53:01.930Z,57.70
2022-08-30T08:55:30.698Z,55.10
2022-08-30T08:57:58.835Z,54.30
2022-08-30T09:00:26.738Z,53.50
2022-08-30T09:02:59.299Z,53.60
2022-08-30T09:05:30.194Z,53.00
2022-08-30T09:08:07.650Z,52.00
2022-08-30T09:10:54.931Z,51.60
2022-08-30T09:13:23.150Z,52.00
2022-08-30T09:15:55.102Z,52.50
2022-08-30T09:18:45.692Z,51.90
2022-08-30T09:21:14.931Z,52.00
2022-08-30T09:23:55.672Z,52.00
2022-08-30T09:26:34.502Z,51.70
2022-08-30T09:29:02.375Z,51.30
2022-08-30T09:31:32.891Z,50.90
2022-08-30T09:34:03.535Z,51.30
2022-08-30T09:36:34.697Z,51.40
2022-08-30T09:39:07.107Z,51.10
2022-08-30T09:41:42.530Z,50.80
2022-08-30T09:44:15.104Z,49.70
2022-08-30T09:46:49.611Z,50.40
2022-08-30T09:49:34.444Z,49.10
2022-08-30T09:52:19.068Z,48.40
2022-08-30T09:55:03.354Z,48.60
2022-08-30T09:57:37.200Z,48.60
2022-08-30T10:00:17.476Z,45.90
2022-08-30T10:02:59.937Z,45.40
2022-08-30T10:05:34.926Z,45.40
2022-08-30T10:08:13.230Z,44.80
2022-08-30T10:10:50.460Z,43.30
2022-08-30T10:13:37.974Z,44.20
2022-08-30T10:16:14.665Z,42.90
2022-08-30T10:18:51.207Z,41.90
2022-08-30T10:21:26.328Z,41.20
2022-08-30T10:23:57.540Z,40.50
2022-08-30T10:26:32.863Z,41.30
2022-08-30T10:29:07.002Z,40.70
2022-08-30T10:31:41.482Z,41.20
2022-08-30T10:34:15.370Z,40.80
2022-08-30T10:36:49.871Z,41.50
2022-08-30T10:39:25.218Z,42.20
2022-08-30T10:42:00.866Z,40.80
2022-08-30T10:44:31.499Z,41.00
2022-08-30T10:47:07.303Z,40.40
2022-08-30T10:49:40.821Z,41.00
2022-08-30T10:52:20.939Z,42.00
2022-08-30T10:54:52.818Z,42.00
2022-08-30T10:57:22.580Z,40.60
2022-08-30T10:59:56.469Z,41.70
2022-08-30T11:02:50.989Z,41.30
2022-08-30T11:05:35.698Z,41.60
2022-08-30T11:08:21.948Z,42.20
2022-08-30T11:11:02.665Z,42.10
2022-08-30T11:13:35.892Z,41.80
2022-08-30T11:16:06.943Z,41.00
2022-08-30T11:18:43.698Z,39.60
2022-08-30T11:21:21.785Z,39.40
2022-08-30T11:24:06.533Z,38.70
2022-08-30T11:27:00.206Z,39.50
2022-08-30T11:29:47.641Z,39.70
2022-08-30T11:32:57.246Z,40.30
2022-08-30T11:35:48.145Z,39.80
2022-08-30T11:38:41.394Z,39.70
2022-08-30T11:41:11.970Z,39.00
2022-08-30T11:43:56.041Z,38.50
2022-08-30T11:46:38.845Z,38.60
2022-08-30T11:49:36.854Z,38.60
2022-08-30T11:52:43.186Z,37.60
2022-08-30T11:55:39.007Z,38.70
2022-08-30T11:58:28.407Z,37.80
2022-08-30T12:01:40.938Z,37.80
2022-08-30T12:04:15.293Z,37.20
2022-08-30T12:06:54.023Z,37.20
2022-08-30T12:10:04.732Z,37.80
2022-08-30T12:12:51.614Z,38.00
2022-08-30T12:15:56.018Z,37.40
2022-08-30T12:18:30.127Z,37.20
2022-08-30T12:21:04.870Z,37.40
2022-08-30T12:23:44.364Z,38.10
2022-08-30T12:26:17.717Z,37.40
2022-08-30T12:28:50.967Z,37.90
2022-08-30T12:31:23.310Z,38.50
2022-08-30T12:33:56.553Z,38.20
2022-08-30T12:36:35.955Z,37.10
2022-08-30T12:39:16.692Z,37.70
2022-08-30T12:41:45.653Z,38.10
2022-08-30T12:44:17.103Z,37.90
2022-08-30T12:46:49.289Z,38.20
2022-08-30T12:49:18.585Z,38.00
2022-08-30T12:51:46.685Z,37.00
2022-08-30T12:54:19.286Z,37.10
2022-08-30T12:56:54.849Z,37.20
2022-08-30T12:59:54.172Z,36.70
2022-08-30T13:02:29.838Z,36.80
2022-08-30T13:04:58.431Z,37.30
2022-08-30T13:07:32.886Z,36.90
2022-08-30T13:10:24.723Z,36.80
2022-08-30T13:13:02.783Z,37.00
2022-08-30T13:15:33.598Z,37.30
2022-08-30T13:18:29.846Z,38.00
2022-08-30T13:21:21.855Z,37.40
2022-08-30T13:23:50.038Z,38.10
2022-08-30T13:26:22.977Z,39.10
2022-08-30T13:28:53.896Z,39.10
2022-08-30T13:31:22.481Z,39.40
2022-08-30T13:33:53.175Z,39.80
2022-08-30T13:36:23.017Z,39.60
2022-08-30T13:38:52.888Z,39.60
2022-08-30T13:41:21.255Z,40.40
2022-08-30T13:46:37.882Z,39.40
2022-08-30T13:49:42.986Z,39.60
2022-08-30T13:52:18.917Z,39.50
2022-08-30T13:54:46.277Z,39.50
2022-08-30T13:57:53.440Z,39.60
2022-08-30T14:00:12.106Z,40.30
2022-08-30T14:02:45.309Z,38.70
2022-08-30T14:05:46.823Z,38.70
2022-08-30T14:08:05.875Z,38.00
2022-08-30T14:10:39.438Z,38.50
2022-08-30T14:13:14.735Z,38.20
2022-08-30T14:15:42.550Z,38.50
2022-08-30T14:18:15.849Z,39.10
2022-08-30T14:20:47.730Z,38.40
2022-08-30T14:23:15.879Z,37.80
2022-08-30T14:25:43.667Z,38.10
2022-08-30T14:28:11.518Z,38.50
2022-08-30T14:30:40.379Z,38.00
2022-08-30T14:33:10.751Z,38.30
2022-08-30T14:35:41.301Z,37.80
2022-08-30T14:38:11.139Z,38.10
2022-08-30T14:40:40.236Z,38.80
2022-08-30T14:43:08.100Z,38.90
2022-08-30T14:45:38.059Z,37.90
2022-08-30T14:48:16.321Z,38.20
2022-08-30T14:50:44.193Z,39.60
2022-08-30T14:53:13.286Z,39.90
2022-08-30T14:55:42.751Z,39.50
2022-08-30T14:58:11.173Z,40.00
2022-08-30T15:00:39.442Z,40.70
2022-08-30T15:03:08.779Z,40.20
2022-08-30T15:05:36.577Z,40.40
2022-08-30T15:08:05.149Z,39.80
2022-08-30T15:10:34.662Z,40.40
2022-08-30T15:13:04.873Z,42.90
2022-08-30T15:15:32.936Z,43.40
2022-08-30T15:18:00.726Z,43.10
2022-08-30T15:20:29.160Z,44.00
2022-08-30T15:22:57.594Z,43.90
2022-08-30T15:25:25.558Z,43.40
2022-08-30T15:27:54.677Z,43.20
2022-08-30T15:30:23.475Z,43.00
2022-08-30T15:32:52.031Z,43.60
2022-08-30T15:35:19.987Z,43.10
2022-08-30T15:37:50.577Z,42.90
2022-08-30T15:40:19.660Z,42.50
2022-08-30T15:42:47.492Z,42.10
2022-08-30T15:45:18.004Z,43.00
2022-08-30T15:47:45.925Z,42.80
2022-08-30T15:50:14.331Z,42.40
2022-08-30T15:52:42.139Z,43.90
2022-08-30T15:55:10.650Z,43.10
2022-08-30T15:57:38.478Z,43.70
2022-08-30T16:00:07.849Z,43.70
2022-08-30T16:02:37.220Z,43.80
2022-08-30T16:05:07.740Z,43.60
2022-08-30T16:07:40.425Z,44.60
2022-08-30T16:10:10.182Z,44.40
2022-08-30T16:12:37.969Z,45.10
2022-08-30T16:15:06.507Z,45.10
2022-08-30T16:17:36.100Z,45.10
2022-08-30T16:20:07.337Z,45.30
2022-08-30T16:22:35.482Z,45.70
2022-08-30T16:25:04.455Z,45.20
2022-08-30T16:27:34.744Z,45.70
2022-08-30T16:30:02.575Z,45.10
2022-08-30T16:32:31.033Z,44.90
2022-08-30T16:35:00.519Z,45.10
2022-08-30T16:37:28.668Z,45.30
2022-08-30T16:39:56.518Z,45.60
2022-08-30T16:42:24.501Z,46.40
2022-08-30T16:44:52.488Z,46.40
2022-08-30T16:47:20.398Z,47.00
2022-08-30T16:49:48.286Z,47.00
2022-08-30T16:52:19.651Z,47.20
2022-08-30T16:54:47.501Z,47.90
2022-08-30T16:57:20.346Z,48.10
2022-08-30T16:59:49.533Z,49.00
2022-08-30T17:02:18.878Z,49.50
2022-08-30T17:04:49.773Z,49.20
2022-08-30T17:07:21.593Z,49.80
2022-08-30T17:09:50.516Z,50.30
2022-08-30T17:12:19.063Z,50.20
2022-08-30T17:14:47.522Z,50.30
2022-08-30T17:17:15.445Z,50.60
2022-08-30T17:19:44.235Z,51.60
2022-08-30T17:22:13.191Z,51.80
2022-08-30T17:24:42.496Z,51.70
2022-08-30T17:27:11.505Z,51.20
2022-08-30T17:29:39.499Z,52.00
2022-08-30T17:32:07.602Z,51.90
2022-08-30T17:34:36.799Z,52.00
2022-08-30T17:37:05.133Z,51.70
2022-08-30T17:39:32.915Z,52.60
2022-08-30T17:42:02.236Z,52.90
2022-08-30T17:44:33.374Z,53.30
2022-08-30T17:47:02.113Z,53.70
2022-08-30T17:49:33.277Z,53.90
2022-08-30T17:52:02.391Z,54.10
2022-08-30T17:54:32.057Z,54.60
2022-08-30T17:57:02.057Z,54.50
2022-08-30T17:59:31.705Z,55.00
2022-08-30T18:02:01.376Z,55.20
2022-08-30T18:04:30.475Z,55.60
2022-08-30T18:06:58.914Z,56.10
2022-08-30T18:09:30.514Z,56.40
2022-08-30T18:11:59.798Z,56.70
2022-08-30T18:14:29.687Z,56.90
2022-08-30T18:16:57.565Z,57.50
2022-08-30T18:19:27.627Z,57.40
2022-08-30T18:21:55.675Z,57.60
2022-08-30T18:24:24.209Z,57.50
2022-08-30T18:26:54.554Z,57.50
2022-08-30T18:29:28.928Z,57.60
2022-08-30T18:31:59.188Z,57.60
2022-08-30T18:34:27.017Z,57.80
2022-08-30T18:36:54.828Z,57.80
2022-08-30T18:39:22.958Z,58.10
2022-08-30T18:41:52.886Z,58.00
2022-08-30T18:44:33.216Z,58.00
2022-08-30T18:47:12.835Z,57.80
2022-08-30T18:49:40.664Z,58.30
2022-08-30T18:52:10.037Z,58.30
2022-08-30T18:54:40.476Z,58.80
2022-08-30T18:57:08.437Z,58.60
2022-08-30T18:59:37.915Z,58.60
2022-08-30T19:02:06.379Z,58.60
2022-08-30T19:04:36.152Z,58.70
2022-08-30T19:07:05.977Z,59.00
2022-08-30T19:09:33.994Z,59.40
2022-08-30T19:12:01.802Z,59.60
2022-08-30T19:14:29.666Z,59.80
2022-08-30T19:17:02.032Z,60.40
2022-08-30T19:19:33.321Z,61.50
2022-08-30T19:22:04.564Z,62.10
2022-08-30T19:24:33.430Z,64.70
2022-08-30T19:27:03.231Z,66.00
2022-08-30T19:29:31.286Z,65.60
2022-08-30T19:31:59.083Z,66.60
2022-08-30T19:34:27.296Z,72.10
2022-08-30T19:36:55.771Z,71.60
2022-08-30T19:39:24.905Z,72.90
2022-08-30T19:41:53.125Z,72.80
2022-08-30T19:44:21.026Z,75.70
2022-08-30T19:46:48.774Z,76.50
2022-08-30T19:49:16.547Z,77.90
2022-08-30T19:51:46.562Z,77.80
2022-08-30T19:54:15.324Z,79.70
2022-08-30T19:56:46.468Z,79.40
2022-08-30T19:59:16.483Z,79.70
2022-08-30T20:01:45.824Z,81.70
2022-08-30T20:04:14.352Z,83.00
2022-08-30T20:06:44.758Z,83.70
2022-08-30T20:09:14.169Z,83.00
2022-08-30T20:11:43.169Z,81.80
2022-08-30T20:14:13.889Z,82.40
2022-08-30T20:16:41.853Z,82.80
2022-08-30T20:19:11.735Z,83.80
2022-08-30T20:21:39.885Z,82.40
2022-08-30T20:24:09.682Z,83.10
2022-08-30T20:26:58.059Z,83.90
2022-08-30T20:29:27.813Z,84.20
2022-08-30T20:31:55.701Z,82.90
2022-08-30T20:34:27.363Z,83.30
2022-08-30T20:36:55.405Z,85.20
2022-08-30T20:39:23.562Z,85.90
2022-08-30T20:41:51.985Z,87.10
2022-08-30T20:44:19.811Z,87.90
2022-08-30T20:46:50.619Z,88.30
2022-08-30T20:49:19.514Z,87.30
2022-08-30T20:51:52.866Z,87.40
2022-08-30T20:54:22.385Z,87.60
2022-08-30T20:56:51.341Z,85.90
2022-08-30T20:59:19.490Z,85.70
2022-08-30T21:01:50.389Z,84.50
2022-08-30T21:04:18.780Z,84.30
2022-08-30T21:06:46.580Z,85.00
2022-08-30T21:09:15.043Z,84.60
2022-08-30T21:11:44.390Z,83.70
2022-08-30T21:14:12.716Z,83.50
2022-08-30T21:16:40.679Z,82.10
2022-08-30T21:19:09.043Z,82.90
2022-08-30T21:21:38.198Z,83.50
2022-08-30T21:24:09.936Z,83.40
2022-08-30T21:26:38.279Z,82.70
2022-08-30T21:29:06.652Z,84.60
2022-08-30T21:31:34.842Z,85.00
2022-08-30T21:34:02.623Z,87.50
2022-08-30T21:36:47.492Z,87.00
2022-08-30T21:39:22.831Z,86.00
2022-08-30T21:41:52.955Z,85.30
2022-08-30T21:44:23.544Z,86.50
2022-08-30T21:46:52.801Z,87.60
2022-08-30T21:49:24.177Z,89.40
2022-08-30T21:51:54.698Z,91.40
2022-08-30T21:54:24.983Z,92.20
2022-08-30T21:57:01.468Z,92.30
2022-08-30T21:59:29.541Z,93.10
2022-08-30T22:01:59.008Z,93.00
2022-08-30T22:04:27.103Z,91.80
2022-08-30T22:06:54.906Z,92.40
2022-08-30T22:09:25.843Z,92.00
2022-08-30T22:11:54.758Z,92.00
2022-08-30T22:14:23.262Z,91.80
2022-08-30T22:16:51.694Z,91.30
2022-08-30T22:19:23.063Z,91.60
2022-08-30T22:21:51.843Z,91.70
2022-08-30T22:24:20.019Z,90.70
2022-08-30T22:26:49.151Z,90.70
2022-08-30T22:29:17.712Z,91.50
2022-08-30T22:31:45.546Z,89.10
2022-08-30T22:34:13.464Z,89.80
2022-08-30T22:36:41.276Z,89.20
2022-08-30T22:39:10.469Z,90.10
2022-08-30T22:41:39.469Z,90.60
2022-08-30T22:44:08.700Z,90.50
2022-08-30T22:46:37.803Z,90.30
2022-08-30T22:49:06.635Z,91.50
2022-08-30T22:51:35.310Z,92.40
2022-08-30T22:54:03.999Z,93.60
2022-08-30T22:56:32.227Z,94.30
2022-08-30T22:59:00.066Z,94.60
2022-08-30T23:01:31.576Z,95.40
2022-08-30T23:04:03.040Z,95.60
2022-08-30T23:06:31.511Z,93.80
2022-08-30T23:09:00.001Z,93.20
2022-08-30T23:11:30.660Z,92.80
2022-08-30T23:14:01.183Z,92.40
2022-08-30T23:16:30.879Z,92.00
2022-08-30T23:18:58.727Z,91.90
2022-08-30T23:21:28.534Z,92.00
2022-08-30T23:24:15.359Z,92.10
2022-08-30T23:27:01.326Z,92.70
2022-08-30T23:29:48.956Z,92.90
2022-08-30T23:32:36.230Z,92.40
2022-08-30T23:35:26.811Z,93.00
2022-08-30T23:38:15.400Z,93.10
2022-08-30T23:41:00.837Z,93.70
2022-08-30T23:43:46.459Z,93.30
2022-08-30T23:46:33.533Z,92.20
2022-08-30T23:49:20.798Z,91.60
2022-08-30T23:52:06.383Z,90.70
2022-08-30T23:54:57.184Z,91.10
2022-08-30T23:57:43.689Z,89.90
